Time;durP1;ratioP1;P1;durP2;ratioP2;P2;SDS_P1;SDS_P2;PMS_P1;PMS_P2;Temp;Humidity;BMP_temperature;BMP_pressure;BME280_temperature;BME280_humidity;BME280_pressure;Samples;Min_cycle;Max_cycle;Signal;HPM_P1;HPM_P2
2021/03/04 06:42:41;;;;;;;15.90;8.10;;;;;;;;;;5874080;22;20016;-86
2021/03/04 06:45:36;;;;;;;18.30;11.52;;;;;;;;;;4990551;28;20046;-90
2021/03/04 06:48:25;;;;;;;21.30;12.50;;;;;;;;;;4989806;28;20025;-90
2021/03/04 06:51:19;;;;;;;19.80;8.98;;;;;;;;;;4974067;28;20022;-91
2021/03/04 06:54:04;;;;;;;22.08;8.25;;;;;;;;;;4988242;28;20419;-85
2021/03/04 06:56:50;;;;;;;16.45;7.82;;;;;;;;;;4989857;28;20416;-87
2021/03/04 06:59:53;;;;;;;16.42;8.48;;;;;;;;;;4988400;28;20143;-85
2021/03/04 07:02:39;;;;;;;15.05;7.85;;;;;;;;;;4993214;28;20549;-91
2021/03/04 07:05:25;;;;;;;16.92;8.10;;;;;;;;;;4991039;28;20049;-88
2021/03/04 07:08:10;;;;;;;17.70;8.40;;;;;;;;;;4991833;28;20081;-91
2021/03/04 07:10:56;;;;;;;15.23;8.20;;;;;;;;;;4994816;28;20048;-88
2021/03/04 07:13:44;;;;;;;23.08;9.25;;;;;;;;;;4989831;28;20018;-90
2021/03/04 07:16:43;;;;;;;16.10;8.02;;;;;;;;;;4979882;28;20022;-92
2021/03/04 07:19:29;;;;;;;14.70;7.22;;;;;;;;;;4978407;28;20072;-89
2021/03/04 07:22:15;;;;;;;30.30;11.18;;;;;;;;;;4994375;28;20030;-82
2021/03/04 07:25:00;;;;;;;19.25;10.88;;;;;;;;;;4995198;28;20505;-87
2021/03/04 07:27:49;;;;;;;20.92;9.20;;;;;;;;;;4991960;28;20033;-77
2021/03/04 07:30:36;;;;;;;20.05;9.48;;;;;;;;;;4983664;28;20048;-77
2021/03/04 07:33:22;;;;;;;20.08;10.50;;;;;;;;;;4987510;28;20492;-75
2021/03/04 07:36:09;;;;;;;19.23;9.02;;;;;;;;;;4989375;28;20513;-75
2021/03/04 07:39:01;;;;;;;20.55;8.45;;;;;;;;;;4988073;28;20429;-76
2021/03/04 07:41:47;;;;;;;17.13;8.82;;;;;;;;;;4963929;28;20139;-76
2021/03/04 07:44:33;;;;;;;14.73;9.52;;;;;;;;;;4991266;28;20085;-82
2021/03/04 07:47:28;;;;;;;20.58;9.02;;;;;;;;;;4998896;28;20041;-88
2021/03/04 07:53:41;;;;;;;18.52;9.70;;;;;;;;;;4963935;28;20041;-87
2021/03/04 07:56:32;;;;;;;24.35;9.68;;;;;;;;;;5000383;28;20045;-89
2021/03/04 07:59:21;;;;;;;18.08;9.05;;;;;;;;;;4995534;28;20042;-89
2021/03/04 08:02:17;;;;;;;21.20;9.77;;;;;;;;;;4999493;28;20042;-87
2021/03/04 08:05:06;;;;;;;22.52;9.35;;;;;;;;;;4993796;28;20026;-91
2021/03/04 08:07:51;;;;;;;23.95;10.85;;;;;;;;;;5006274;28;20388;-89
2021/03/04 08:10:56;;;;;;;;;;;;;;;;;;;;;
2021/03/04 08:13:44;;;;;;;26.02;12.90;;;;;;;;;;4987589;28;20113;-90
2021/03/04 08:16:32;;;;;;;19.20;12.30;;;;;;;;;;4950914;29;20032;-92
2021/03/04 08:19:17;;;;;;;20.02;8.18;;;;;;;;;;5005632;28;20034;-89
2021/03/04 08:22:07;;;;;;;15.15;6.75;;;;;;;;;;5008994;28;20229;-87
2021/03/04 08:24:52;;;;;;;20.05;7.85;;;;;;;;;;5000232;28;20006;-88
2021/03/04 08:27:50;;;;;;;;;;;;;;;;;;;;;
2021/03/04 08:31:14;;;;;;;14.23;7.40;;;;;;;;;;5000912;28;20046;-91
2021/03/04 08:34:33;;;;;;;;;;;;;;;;;;;;;
2021/03/04 08:37:35;;;;;;;15.25;7.97;;;;;;;;;;4944978;28;20113;-91
2021/03/04 08:40:24;;;;;;;19.50;9.25;;;;;;;;;;4990095;28;20077;-89
2021/03/04 08:50:35;;;;;;;16.35;8.25;;;;;;;;;;4929039;29;20031;-90
2021/03/04 08:53:28;;;;;;;25.05;15.95;;;;;;;;;;4986612;28;20054;-89
2021/03/04 08:56:13;;;;;;;22.88;10.15;;;;;;;;;;4989180;28;20641;-88
2021/03/04 08:58:59;;;;;;;15.98;8.70;;;;;;;;;;4990353;28;20120;-89
2021/03/04 09:01:44;;;;;;;21.02;7.50;;;;;;;;;;5009379;28;20041;-88
2021/03/04 09:04:29;;;;;;;17.02;8.20;;;;;;;;;;4999719;28;20022;-90
2021/03/04 09:07:31;;;;;;;17.67;8.20;;;;;;;;;;4994530;28;20061;-89
2021/03/04 09:10:28;;;;;;;14.77;7.55;;;;;;;;;;4984279;28;20061;-86
2021/03/04 09:13:18;;;;;;;20.33;7.70;;;;;;;;;;4979369;28;20019;-86
2021/03/04 09:16:06;;;;;;;;;;;;;;;;;;4980901;28;20113;-86
2021/03/04 09:18:54;;;;;;;14.82;7.72;;;;;;;;;;4987137;28;19910;-87
2021/03/04 09:22:03;;;;;;;16.17;9.02;;;;;;;;;;4996388;28;20160;-93
2021/03/04 09:31:54;;;;;;;39.78;9.05;;;;;;;;;;4946324;28;20026;-81
2021/03/04 09:34:43;;;;;;;18.27;8.02;;;;;;;;;;4977077;28;20507;-82
2021/03/04 09:37:35;;;;;;;18.20;8.83;;;;;;;;;;4975002;28;20042;-84
2021/03/04 09:40:30;;;;;;;32.85;22.33;;;;;;;;;;4977714;28;20322;-87
2021/03/04 09:43:16;;;;;;;23.42;9.40;;;;;;;;;;4997603;28;20366;-87
2021/03/04 09:46:02;;;;;;;19.85;8.02;;;;;;;;;;4978287;28;20044;-87
2021/03/04 09:48:47;;;;;;;19.95;8.38;;;;;;;;;;4966055;28;20041;-89
2021/03/04 09:51:40;;;;;;;18.58;8.80;;;;;;;;;;4982327;28;20531;-87
2021/03/04 09:54:42;;;;;;;21.98;9.60;;;;;;;;;;4986249;28;20030;-89
2021/03/04 09:57:30;;;;;;;18.05;8.93;;;;;;;;;;4983806;28;20469;-86
2021/03/04 10:00:22;;;;;;;22.90;9.38;;;;;;;;;;4981441;28;20057;-85
2021/03/04 10:03:12;;;;;;;18.05;14.60;;;;;;;;;;4983010;28;20022;-89
2021/03/04 10:06:00;;;;;;;17.92;16.02;;;;;;;;;;4981514;28;20065;-88
2021/03/04 10:09:16;;;;;;;;;;;;;;;;;;;;;
2021/03/04 10:12:35;;;;;;;19.92;17.90;;;;;;;;;;4976500;28;20303;-94
2021/03/04 10:15:27;;;;;;;22.48;20.13;;;;;;;;;;4961118;28;20489;-92
2021/03/04 10:18:19;;;;;;;44.63;40.80;;;;;;;;;;4987321;28;20034;-90
2021/03/04 10:21:05;;;;;;;123.75;116.88;;;;;;;;;;4984991;28;20480;-87
2021/03/04 10:23:55;;;;;;;43.85;40.60;;;;;;;;;;4983619;28;20342;-93
2021/03/04 10:26:41;;;;;;;45.00;41.58;;;;;;;;;;4977958;28;20030;-87
2021/03/04 10:29:27;;;;;;;67.22;62.75;;;;;;;;;;4984583;28;20081;-91
2021/03/04 10:32:12;;;;;;;64.43;59.90;;;;;;;;;;4982540;28;20049;-87
2021/03/04 10:35:21;;;;;;;49.25;45.47;;;;;;;;;;4989930;28;20037;-95
2021/03/04 10:38:09;;;;;;;;;;;;;;;;;;5000365;28;20030;-94
2021/03/04 10:52:57;;;;;;;;;;;;;;;;;;;;;
2021/03/04 10:55:52;;;;;;;1999.90;999.90;;;;;;;;;;4988150;28;20045;-86
2021/03/04 10:58:38;;;;;;;228.50;215.48;;;;;;;;;;5036575;28;20491;-89
2021/03/04 11:01:24;;;;;;;28.05;15.88;;;;;;;;;;5049682;28;20051;-84
2021/03/04 11:04:12;;;;;;;18.88;10.35;;;;;;;;;;5037570;28;20024;-88
2021/03/04 11:06:57;;;;;;;19.00;10.52;;;;;;;;;;5028306;28;20075;-78
2021/03/04 11:09:42;;;;;;;19.90;9.43;;;;;;;;;;5039755;28;20094;-78
2021/03/04 11:12:27;;;;;;;19.20;9.35;;;;;;;;;;5043018;28;20642;-81
2021/03/04 11:15:13;;;;;;;23.98;9.82;;;;;;;;;;5042663;28;20598;-80
2021/03/04 11:17:58;;;;;;;26.33;10.95;;;;;;;;;;5036350;28;20741;-81
2021/03/04 11:20:44;;;;;;;25.33;10.70;;;;;;;;;;5039430;28;20029;-80
2021/03/04 11:23:29;;;;;;;18.88;9.48;;;;;;;;;;5037592;28;20028;-78
2021/03/04 11:26:14;;;;;;;23.70;10.48;;;;;;;;;;5038815;28;20027;-76
2021/03/04 11:28:59;;;;;;;23.85;9.60;;;;;;;;;;5035503;28;20036;-79
2021/03/04 11:31:45;;;;;;;20.00;8.65;;;;;;;;;;5040018;28;20503;-78
2021/03/04 11:34:30;;;;;;;23.52;10.43;;;;;;;;;;5040881;28;20463;-79
2021/03/04 11:37:15;;;;;;;21.85;8.93;;;;;;;;;;5046318;28;20025;-79
2021/03/04 11:40:01;;;;;;;22.02;11.35;;;;;;;;;;5041020;28;20611;-78
2021/03/04 11:42:46;;;;;;;20.73;10.38;;;;;;;;;;5036411;28;20266;-81
2021/03/04 11:45:32;;;;;;;20.73;10.02;;;;;;;;;;5037375;28;20861;-81
2021/03/04 11:48:17;;;;;;;17.65;9.52;;;;;;;;;;5045028;28;20033;-80
2021/03/04 11:51:03;;;;;;;21.63;10.20;;;;;;;;;;5038635;28;20151;-80
2021/03/04 11:53:48;;;;;;;22.02;10.45;;;;;;;;;;5045837;28;20529;-85
2021/03/04 11:56:33;;;;;;;24.13;10.88;;;;;;;;;;5039981;28;20029;-83
2021/03/04 11:59:18;;;;;;;26.63;12.48;;;;;;;;;;5040129;28;20675;-83
2021/03/04 12:02:04;;;;;;;23.08;10.43;;;;;;;;;;5038866;28;20028;-83
2021/03/04 12:04:50;;;;;;;25.90;9.52;;;;;;;;;;5037817;28;20036;-84
2021/03/04 12:07:35;;;;;;;23.55;10.85;;;;;;;;;;5048694;28;20029;-81
2021/03/04 12:10:21;;;;;;;24.92;10.25;;;;;;;;;;5039914;28;20435;-76
2021/03/04 12:13:07;;;;;;;21.13;9.82;;;;;;;;;;5043715;28;20016;-78
2021/03/04 12:15:52;;;;;;;21.63;9.93;;;;;;;;;;5042541;28;20017;-78
2021/03/04 12:18:38;;;;;;;20.20;9.52;;;;;;;;;;5044052;28;20029;-81
2021/03/04 12:21:23;;;;;;;20.95;9.52;;;;;;;;;;5031753;28;20680;-80
2021/03/04 12:24:09;;;;;;;20.00;9.70;;;;;;;;;;5035522;28;20268;-81
2021/03/04 12:26:55;;;;;;;18.50;8.77;;;;;;;;;;5041967;28;20490;-81
2021/03/04 12:29:40;;;;;;;18.80;8.82;;;;;;;;;;5041490;28;20361;-81
2021/03/04 12:32:28;;;;;;;16.02;7.57;;;;;;;;;;5032954;28;20107;-83
2021/03/04 12:35:14;;;;;;;22.05;9.60;;;;;;;;;;5043645;28;20033;-81
2021/03/04 12:37:59;;;;;;;23.73;9.15;;;;;;;;;;5037784;28;20472;-80
2021/03/04 12:40:44;;;;;;;19.65;8.07;;;;;;;;;;5045285;28;20032;-81
2021/03/04 12:43:29;;;;;;;26.25;9.73;;;;;;;;;;5045147;28;20395;-81
2021/03/04 12:46:15;;;;;;;21.23;9.70;;;;;;;;;;5042314;28;20029;-80
2021/03/04 12:49:03;;;;;;;20.35;8.70;;;;;;;;;;5042141;28;20071;-82
2021/03/04 12:51:48;;;;;;;20.00;8.13;;;;;;;;;;5038130;28;20045;-79
2021/03/04 12:54:33;;;;;;;25.10;8.80;;;;;;;;;;5043159;28;20020;-80
2021/03/04 12:57:19;;;;;;;17.05;7.80;;;;;;;;;;5041401;28;20425;-80
2021/03/04 13:00:05;;;;;;;19.05;7.13;;;;;;;;;;5039524;28;20032;-80
2021/03/04 13:02:50;;;;;;;16.65;6.95;;;;;;;;;;5047226;28;20028;-80
2021/03/04 13:05:45;;;;;;;16.08;7.28;;;;;;;;;;5047507;28;20100;-82
2021/03/04 13:08:33;;;;;;;20.55;8.57;;;;;;;;;;5042312;28;20025;-81
2021/03/04 13:11:18;;;;;;;17.88;8.65;;;;;;;;;;5044219;28;20578;-80
2021/03/04 13:14:03;;;;;;;17.70;7.80;;;;;;;;;;5034311;28;20036;-80
2021/03/04 13:16:48;;;;;;;18.10;7.97;;;;;;;;;;5033711;28;20399;-80
2021/03/04 13:19:34;;;;;;;20.35;7.97;;;;;;;;;;5038494;28;20075;-82
2021/03/04 13:22:19;;;;;;;19.95;7.57;;;;;;;;;;5036384;28;20021;-80
2021/03/04 13:25:04;;;;;;;16.65;7.70;;;;;;;;;;5042591;28;20016;-80
2021/03/04 13:27:51;;;;;;;15.93;8.88;;;;;;;;;;5043453;28;20434;-83
2021/03/04 13:30:36;;;;;;;20.27;7.70;;;;;;;;;;5045118;28;20050;-81
2021/03/04 13:33:21;;;;;;;21.77;7.68;;;;;;;;;;5041244;28;20060;-82
2021/03/04 13:36:07;;;;;;;21.92;7.10;;;;;;;;;;5025813;28;20545;-82
2021/03/04 13:38:52;;;;;;;15.07;6.85;;;;;;;;;;5044899;28;20032;-82
2021/03/04 13:41:37;;;;;;;20.83;8.55;;;;;;;;;;5023739;28;20368;-81
2021/03/04 13:44:22;;;;;;;20.65;8.23;;;;;;;;;;5027189;28;20040;-81
2021/03/04 13:47:14;;;;;;;37.30;22.23;;;;;;;;;;5055410;28;20021;-92
2021/03/04 13:50:08;;;;;;;16.58;7.13;;;;;;;;;;5067714;28;20122;-91
2021/03/04 13:52:54;;;;;;;13.50;6.90;;;;;;;;;;5057539;28;20020;-88
2021/03/04 13:55:40;;;;;;;22.35;6.72;;;;;;;;;;5062795;28;20087;-88
2021/03/04 13:58:27;;;;;;;15.80;6.15;;;;;;;;;;5055688;28;20021;-89
2021/03/04 14:01:13;;;;;;;15.27;6.57;;;;;;;;;;5050409;28;20487;-89
2021/03/04 14:03:58;;;;;;;15.38;5.60;;;;;;;;;;5049051;28;20358;-89
2021/03/04 14:06:43;;;;;;;14.45;5.28;;;;;;;;;;5048378;28;20107;-88
2021/03/04 14:09:29;;;;;;;23.25;6.00;;;;;;;;;;5034885;28;20395;-89
2021/03/04 14:12:18;;;;;;;15.57;6.13;;;;;;;;;;5025641;28;20071;-89
2021/03/04 14:15:19;;;;;;;18.67;5.18;;;;;;;;;;5046517;28;20079;-88
2021/03/04 14:18:07;;;;;;;17.98;5.45;;;;;;;;;;5043383;28;20380;-89
2021/03/04 14:20:52;;;;;;;19.17;5.47;;;;;;;;;;5037365;28;20048;-88
2021/03/04 14:23:38;;;;;;;15.55;5.47;;;;;;;;;;5041375;28;20545;-89
2021/03/04 14:29:52;;;;;;;22.73;9.77;;;;;;;;;;4989583;28;20117;-90
2021/03/04 14:32:46;;;;;;;22.00;6.90;;;;;;;;;;5053075;28;20065;-88
2021/03/04 14:35:35;;;;;;;12.10;4.55;;;;;;;;;;5034731;28;20037;-88
2021/03/04 14:38:20;;;;;;;16.70;5.05;;;;;;;;;;5048883;28;20106;-87
2021/03/04 14:41:06;;;;;;;27.17;6.43;;;;;;;;;;5033588;28;20031;-86
2021/03/04 14:43:51;;;;;;;15.90;5.18;;;;;;;;;;5053299;28;20543;-84
2021/03/04 14:46:36;;;;;;;16.25;6.07;;;;;;;;;;5046520;28;20169;-86
2021/03/04 14:49:21;;;;;;;17.58;5.32;;;;;;;;;;5028812;28;20511;-86
2021/03/04 14:52:07;;;;;;;21.45;5.75;;;;;;;;;;5055960;28;20063;-89
2021/03/04 14:54:53;;;;;;;24.70;6.10;;;;;;;;;;5046191;28;20108;-85
2021/03/04 14:57:38;;;;;;;18.83;6.05;;;;;;;;;;5046316;28;20029;-89
2021/03/04 15:00:24;;;;;;;12.25;5.78;;;;;;;;;;5041846;28;20027;-86
2021/03/04 15:03:09;;;;;;;16.27;5.10;;;;;;;;;;5040659;28;20028;-85
2021/03/04 15:05:54;;;;;;;21.00;4.85;;;;;;;;;;5044838;28;20025;-86
2021/03/04 15:08:40;;;;;;;24.00;5.60;;;;;;;;;;5041565;28;20407;-86
2021/03/04 15:11:25;;;;;;;12.68;4.65;;;;;;;;;;5039902;28;20372;-87
2021/03/04 15:14:11;;;;;;;13.25;4.90;;;;;;;;;;5039546;28;20021;-89
2021/03/04 15:16:56;;;;;;;14.02;4.38;;;;;;;;;;5037906;28;20361;-84
2021/03/04 15:19:41;;;;;;;12.07;4.28;;;;;;;;;;5037527;28;20710;-84
2021/03/04 15:22:26;;;;;;;23.65;5.20;;;;;;;;;;5039411;28;20027;-83
2021/03/04 15:25:12;;;;;;;13.10;4.72;;;;;;;;;;5046233;28;20103;-86
2021/03/04 15:27:57;;;;;;;18.02;4.90;;;;;;;;;;5040631;28;20390;-86
2021/03/04 15:30:43;;;;;;;11.65;4.82;;;;;;;;;;5048779;28;20028;-86
2021/03/04 15:33:28;;;;;;;13.68;4.80;;;;;;;;;;5055748;28;20029;-88
2021/03/04 15:36:13;;;;;;;15.88;5.40;;;;;;;;;;5057853;28;20639;-88
2021/03/04 15:38:58;;;;;;;16.63;5.38;;;;;;;;;;5046032;28;20013;-84
2021/03/04 15:41:44;;;;;;;18.48;6.05;;;;;;;;;;5046021;28;20602;-86
2021/03/04 15:44:29;;;;;;;15.95;5.80;;;;;;;;;;5043781;28;20025;-86
2021/03/04 15:47:14;;;;;;;34.42;20.75;;;;;;;;;;5043078;28;20406;-84
2021/03/04 15:50:00;;;;;;;24.77;8.57;;;;;;;;;;5042419;28;20041;-84
2021/03/04 15:52:45;;;;;;;12.80;4.53;;;;;;;;;;5042362;28;20391;-88
2021/03/04 15:55:30;;;;;;;18.73;5.32;;;;;;;;;;5040958;28;20021;-88
2021/03/04 15:58:16;;;;;;;12.90;4.93;;;;;;;;;;5051330;28;20394;-86
2021/03/04 16:01:01;;;;;;;16.25;5.72;;;;;;;;;;5046564;28;20025;-86
2021/03/04 16:03:47;;;;;;;16.08;4.82;;;;;;;;;;5040305;28;20028;-86
2021/03/04 16:06:32;;;;;;;13.63;4.63;;;;;;;;;;5042707;28;20092;-86
2021/03/04 16:09:17;;;;;;;19.15;4.75;;;;;;;;;;5045220;28;20075;-88
2021/03/04 16:12:03;;;;;;;21.33;5.25;;;;;;;;;;5051841;28;20024;-90
2021/03/04 16:14:48;;;;;;;18.10;5.15;;;;;;;;;;5049542;28;20209;-94
2021/03/04 16:17:34;;;;;;;17.50;5.03;;;;;;;;;;5047222;28;20035;-92
2021/03/04 16:20:20;;;;;;;35.63;19.08;;;;;;;;;;5047280;28;20082;-91
2021/03/04 16:23:07;;;;;;;31.80;12.38;;;;;;;;;;5048821;28;20025;-92
2021/03/04 16:25:53;;;;;;;18.48;6.40;;;;;;;;;;5046890;28;20487;-90
2021/03/04 16:28:38;;;;;;;16.58;5.53;;;;;;;;;;5051746;28;20036;-91
2021/03/04 16:31:23;;;;;;;22.40;5.93;;;;;;;;;;5047731;28;20028;-89
2021/03/04 16:34:09;;;;;;;24.98;6.63;;;;;;;;;;5049733;28;20024;-89
2021/03/04 16:36:55;;;;;;;15.23;5.03;;;;;;;;;;5049499;28;20092;-89
2021/03/04 16:39:40;;;;;;;14.80;5.13;;;;;;;;;;5049329;28;20013;-89
2021/03/04 16:42:25;;;;;;;14.18;4.80;;;;;;;;;;5045836;28;20105;-91
2021/03/04 16:45:10;;;;;;;26.30;5.38;;;;;;;;;;5058112;28;20122;-89
2021/03/04 16:47:56;;;;;;;18.48;5.50;;;;;;;;;;5051122;28;20028;-90
2021/03/04 16:50:41;;;;;;;13.00;4.90;;;;;;;;;;5052064;28;20048;-91
2021/03/04 16:53:26;;;;;;;17.67;5.00;;;;;;;;;;5033545;28;20094;-87
2021/03/04 16:56:12;;;;;;;15.93;4.70;;;;;;;;;;5052015;28;20075;-90
2021/03/04 16:58:57;;;;;;;15.95;6.55;;;;;;;;;;5056913;28;20025;-93
2021/03/04 17:01:42;;;;;;;17.23;5.53;;;;;;;;;;5051733;28;20059;-89
2021/03/04 17:04:28;;;;;;;19.08;5.43;;;;;;;;;;5049889;28;20112;-90
2021/03/04 17:07:13;;;;;;;18.50;6.35;;;;;;;;;;5054266;28;20024;-82
2021/03/04 17:09:59;;;;;;;53.90;32.40;;;;;;;;;;5025449;28;20135;-83
2021/03/04 17:12:44;;;;;;;44.92;24.73;;;;;;;;;;5035932;28;20037;-82
2021/03/04 17:15:29;;;;;;;17.52;6.40;;;;;;;;;;5039531;28;20032;-83
2021/03/04 17:18:16;;;;;;;15.70;5.35;;;;;;;;;;5040157;28;20021;-82
2021/03/04 17:21:04;;;;;;;15.45;5.28;;;;;;;;;;5041173;28;20112;-82
2021/03/04 17:24:08;;;;;;;;;;;;;;;;;;;;;
2021/03/04 17:27:23;;;;;;;20.30;6.05;;;;;;;;;;4983258;28;20428;-83
2021/03/04 17:30:12;;;;;;;18.27;6.30;;;;;;;;;;4984298;28;20022;-83
2021/03/04 17:36:24;;;;;;;18.65;6.45;;;;;;;;;;5010684;28;20055;-82
2021/03/04 17:39:09;;;;;;;17.50;6.53;;;;;;;;;;5036905;28;20063;-82
2021/03/04 17:41:55;;;;;;;43.97;24.58;;;;;;;;;;5026708;28;20052;-82
2021/03/04 17:44:42;;;;;;;19.90;7.57;;;;;;;;;;5039268;28;20017;-82
2021/03/04 17:47:28;;;;;;;20.77;7.22;;;;;;;;;;5036970;28;20469;-80
2021/03/04 17:50:14;;;;;;;20.08;5.63;;;;;;;;;;5051386;28;20040;-80
2021/03/04 17:52:59;;;;;;;18.30;6.30;;;;;;;;;;5038143;28;20108;-84
2021/03/04 17:55:45;;;;;;;18.65;6.65;;;;;;;;;;5046436;28;20033;-81
2021/03/04 17:58:30;;;;;;;17.02;6.35;;;;;;;;;;5041738;28;20021;-85
2021/03/04 18:01:16;;;;;;;19.42;6.30;;;;;;;;;;5041116;28;20021;-90
2021/03/04 18:04:01;;;;;;;18.83;6.65;;;;;;;;;;5039792;28;20474;-88
2021/03/04 18:06:46;;;;;;;12.00;6.45;;;;;;;;;;5044056;28;20104;-87
2021/03/04 18:09:32;;;;;;;20.20;7.95;;;;;;;;;;5045377;28;20055;-86
2021/03/04 18:12:20;;;;;;;14.20;7.57;;;;;;;;;;5049567;28;20094;-89
2021/03/04 18:15:06;;;;;;;28.85;14.75;;;;;;;;;;5046617;28;20060;-87
2021/03/04 18:18:32;;;;;;;;;;;;;;;;;;;;;
2021/03/04 18:22:14;;;;;;;23.45;7.95;;;;;;;;;;5031873;28;20047;-91
2021/03/04 18:24:40;;;;;;;17.90;7.28;;;;;;;;;;5048151;28;20052;-91
2021/03/04 18:27:26;;;;;;;15.73;7.40;;;;;;;;;;5048650;28;20055;-88
2021/03/04 18:30:14;;;;;;;16.77;7.53;;;;;;;;;;5042837;28;20107;-90
2021/03/04 18:36:34;;;;;;;19.58;9.00;;;;;;;;;;5040301;28;20033;-87
2021/03/04 19:23:51;;;;;;;;;;;;;;;;;;;;;
2021/03/04 19:30:16;;;;;;;10.95;6.18;;;;;;;;;;4977618;28;20057;-83
2021/03/04 20:01:46;;;;;;;11.10;4.15;;;;;;;;;;4912126;29;20122;-89
2021/03/04 20:04:53;;;;;;;8.27;4.30;;;;;;;;;;4912554;29;20067;-89
2021/03/04 20:08:24;;;;;;;;;;;;;;;;;;;;;
2021/03/04 20:12:04;;;;;;;;;;;;;;;;;;;;;
2021/03/04 20:22:02;;;;;;;6.10;3.30;;;;;;;;;;4940832;28;20027;-92
2021/03/04 20:24:57;;;;;;;5.90;3.58;;;;;;;;;;4992453;28;20068;-88
2021/03/04 20:28:19;;;;;;;;;;;;;;;;;;;;;
2021/03/04 20:34:41;;;;;;;16.50;11.85;;;;;;;;;;4965484;28;20030;-88
2021/03/04 20:37:35;;;;;;;27.10;15.02;;;;;;;;;;4974956;28;20504;-88
2021/03/04 20:46:59;;;;;;;4.93;3.10;;;;;;;;;;4971215;28;20042;-89
2021/03/04 20:50:18;;;;;;;4.95;2.88;;;;;;;;;;4959963;28;20470;-89
2021/03/04 20:53:25;;;;;;;7.85;3.50;;;;;;;;;;4919371;29;20554;-87
2021/03/04 20:56:15;;;;;;;7.30;3.38;;;;;;;;;;4985625;28;20034;-87
2021/03/04 20:59:01;;;;;;;5.40;3.28;;;;;;;;;;4997926;28;20537;-90
2021/03/04 21:02:21;;;;;;;;;;;;;;;;;;;;;
2021/03/04 21:08:55;;;;;;;6.65;3.58;;;;;;;;;;4989509;28;20022;-90
2021/03/04 21:30:06;;;;;;;;;;;;;;;;;;;;;
2021/03/04 21:33:16;;;;;;;7.75;4.30;;;;;;;;;;4825999;29;20054;-89
2021/03/04 21:36:43;;;;;;;9.30;3.97;;;;;;;;;;4832417;29;20046;-91
2021/03/04 21:39:31;;;;;;;8.20;3.50;;;;;;;;;;4825424;29;20022;-91
2021/03/04 21:42:43;;;;;;;7.30;4.65;;;;;;;;;;4856236;28;20084;-87
2021/03/04 21:45:56;;;;;;;8.00;4.47;;;;;;;;;;5004620;28;20034;-89
2021/03/04 21:48:41;;;;;;;7.07;4.22;;;;;;;;;;4971176;28;20433;-88
2021/03/04 21:52:24;;;;;;;9.13;4.95;;;;;;;;;;4987299;28;20068;-88
2021/03/04 21:54:56;;;;;;;8.80;4.75;;;;;;;;;;4986291;28;20118;-89
2021/03/04 21:57:49;;;;;;;7.97;4.32;;;;;;;;;;4982959;28;20050;-89
2021/03/04 22:00:38;;;;;;;6.78;4.15;;;;;;;;;;4985792;28;20029;-90
2021/03/04 22:03:59;;;;;;;9.38;4.38;;;;;;;;;;4994638;28;20034;-89
